FW7015 Weather Reports


Display with metric or nautical units.
time (UTC)temp
F
wind
direction
speed
MPH
gust
MPH
rain 1hr
in
rain 24hr
in
rain mn
in
humidity
%
barometer
mb
20240225192258 81 202 4.0 5.0 0.00 0.00 0.00 38 1010.6
20240225191756 80 150 2.0 3.0 0.00 0.00 0.00 39 1010.6
20240225191254 81 180 2.0 2.0 0.00 0.00 0.00 40 1010.5
20240225190752 81 182 1.0 1.0 0.00 0.00 0.00 39 1010.8
20240225190251 79 231 3.0 6.0 0.00 0.00 0.00 38 1010.8
20240225185748 79 180 7.0 8.0 0.00 0.00 0.00 42 1011.0
20240225185246 80 201 3.0 5.0 0.00 0.00 0.00 43 1010.9
20240225184746 79 174 7.0 8.0 0.00 0.00 0.00 42 1011.0
20240225184244 78 149 2.0 2.0 0.00 0.00 0.00 42 1010.8
20240225183743 78 166 4.0 5.0 0.00 0.00 0.00 44 1011.1
20240225183242 77 177 3.0 6.0 0.00 0.00 0.00 44 1011.3
20240225182740 78 189 4.0 5.0 0.00 0.00 0.00 43 1011.4
20240225182239 78 198 3.0 3.0 0.00 0.00 0.00 44 1011.8
20240225181737 77 160 2.0 2.0 0.00 0.00 0.00 44 1011.6
20240225181237 77 153 5.0 9.0 0.00 0.00 0.00 44 1011.6
20240225180736 78 212 5.0 6.0 0.00 0.00 0.00 44 1011.8
20240225180235 77 172 3.0 7.0 0.00 0.00 0.00 43 1011.8
20240225175733 77 171 3.0 6.0 0.00 0.00 0.00 45 1011.9
20240225175233 77 175 8.0 9.0 0.00 0.00 0.00 43 1012.0
20240225174734 77 168 5.0 8.0 0.00 0.00 0.00 44 1012.2
20240225174233 76 162 2.0 2.0 0.00 0.00 0.00 46 1012.3
20240225173732 76 156 7.0 10.0 0.00 0.00 0.00 44 1012.3
20240225173230 74 99 1.0 1.0 0.00 0.00 0.00 44 1012.2
20240225172730 75 150 6.0 11.0 0.00 0.00 0.00 44 1012.5
20240225172228 74 272 4.0 6.0 0.00 0.00 0.00 46 1012.3
20240225171727 74 253 5.0 8.0 0.00 0.00 0.00 47 1012.6
20240225171225 74 210 2.0 2.0 0.00 0.00 0.00 47 1012.8
20240225170724 74 211 1.0 2.0 0.00 0.00 0.00 46 1012.8
20240225170224 73 167 6.0 7.0 0.00 0.00 0.00 45 1012.9
20240225165723 73 210 3.0 5.0 0.00 0.00 0.00 45 1012.8
20240225165222 72 160 5.0 8.0 0.00 0.00 0.00 50 1012.7
20240225150535 64 240 5.0 8.0 0.00 0.00 0.00 49 1013.4
20240225150034 64 227 5.0 7.0 0.00 0.00 0.00 48 1013.7
20240225145533 64 194 1.0 1.0 0.00 0.00 0.00 50 1013.5
20240225145032 64 159 6.0 8.0 0.00 0.00 0.00 49 1013.5
20240225144531 64 174 9.0 16.0 0.00 0.00 0.00 48 1013.6
20240225144031 63 167 6.0 13.0 0.00 0.00 0.00 49 1013.6
20240225143531 63 214 1.0 2.0 0.00 0.00 0.00 49 1013.6
20240225143029 62 161 2.0 3.0 0.00 0.00 0.00 50 1013.4
20240225142529 62 163 5.0 6.0 0.00 0.00 0.00 49 1013.5
20240225142029 61 185 4.0 5.0 0.00 0.00 0.00 51 1013.4
20240225141529 61 205 4.0 6.0 0.00 0.00 0.00 50 1013.5
20240225141028 60 194 5.0 7.0 0.00 0.00 0.00 51 1013.4
20240225140527 60 226 3.0 5.0 0.00 0.00 0.00 50 1013.3
20240225140027 59 221 4.0 7.0 0.00 0.00 0.00 52 1013.3
20240225135526 59 193 5.0 10.0 0.00 0.00 0.00 52 1013.3
20240225135026 59 178 2.0 2.0 0.00 0.00 0.00 52 1013.3
20240225134526 59 185 6.0 9.0 0.00 0.00 0.00 52 1013.5
20240225134024 58 177 2.0 2.0 0.00 0.00 0.00 52 1013.2
20240225133524 58 192 3.0 6.0 0.00 0.00 0.00 52 1013.7
20240225133023 58 176 5.0 9.0 0.00 0.00 0.00 52 1013.5
20240225132522 58 176 4.0 5.0 0.00 0.00 0.00 52 1013.4
20240225132022 58 175 2.0 2.0 0.00 0.00 0.00 52 1013.5
20240225131521 58 179 4.0 6.0 0.00 0.00 0.00 52 1013.4
20240225131021 58 181 3.0 5.0 0.00 0.00 0.00 52 1013.2
20240225130519 58 172 1.0 2.0 0.00 0.00 0.00 52 1013.6
20240225130019 58 187 2.0 2.0 0.00 0.00 0.00 52 1013.4
20240225125518 58 182 3.0 5.0 0.00 0.00 0.00 50 1013.3
20240225125018 59 187 7.0 9.0 0.00 0.00 0.00 51 1013.4
20240225124517 59 202 3.0 6.0 0.00 0.00 0.00 50 1013.5
20240225124017 59 178 3.0 5.0 0.00 0.00 0.00 50 1013.4
20240225123517 59 178 2.0 5.0 0.00 0.00 0.00 50 1013.6
20240225123016 59 190 3.0 5.0 0.00 0.00 0.00 50 1013.5
20240225122515 59 167 3.0 5.0 0.00 0.00 0.00 50 1013.4
20240225122014 59 183 3.0 5.0 0.00 0.00 0.00 50 1013.4
20240225121513 59 186 7.0 8.0 0.00 0.00 0.00 49 1013.3
20240225121013 59 198 5.0 8.0 0.00 0.00 0.00 49 1013.3
20240225120512 60 181 3.0 5.0 0.00 0.00 0.00 49 1013.3
20240225120012 60 185 1.0 1.0 0.00 0.00 0.00 48 1013.4
20240225115511 60 151 11.0 15.0 0.00 0.00 0.00 48 1013.3
20240225115011 60 182 3.0 7.0 0.00 0.00 0.00 49 1013.4
20240225114509 60 197 2.0 2.0 0.00 0.00 0.00 48 1013.1
20240225113938 60 183 6.0 9.0 0.00 0.00 0.00 47 1013.0
20240225113438 60 136 2.0 3.0 0.00 0.00 0.00 48 1013.2
20240225112938 60 184 2.0 2.0 0.00 0.00 0.00 48 1013.2
20240225112437 60 207 7.0 11.0 0.00 0.00 0.00 47 1013.2
20240225111936 60 159 3.0 3.0 0.00 0.00 0.00 47 1013.2
20240225111434 60 234 5.0 7.0 0.00 0.00 0.00 48 1013.1
20240225110933 61 215 3.0 5.0 0.00 0.00 0.00 47 1013.1
20240225110433 60 178 3.0 3.0 0.00 0.00 0.00 48 1013.0
20240225105931 61 176 2.0 2.0 0.00 0.00 0.00 48 1013.2
20240225105430 61 201 3.0 5.0 0.00 0.00 0.00 48 1013.2
20240225104929 61 217 8.0 10.0 0.00 0.00 0.00 47 1013.2
20240225104428 61 143 4.0 5.0 0.00 0.00 0.00 48 1013.3
20240225103929 61 185 3.0 6.0 0.00 0.00 0.00 48 1013.3
20240225103428 61 152 2.0 3.0 0.00 0.00 0.00 48 1013.5
20240225102927 61 217 4.0 8.0 0.00 0.00 0.00 48 1013.9
20240225102425 61 229 3.0 5.0 0.00 0.00 0.00 48 1013.5
20240225101924 61 175 5.0 7.0 0.00 0.00 0.00 48 1013.7
20240225101422 62 165 2.0 2.0 0.00 0.00 0.00 49 1013.7
20240225100922 61 165 14.0 21.0 0.00 0.00 0.00 48 1013.8
20240225100422 62 185 3.0 3.0 0.00 0.00 0.00 49 1013.9
20240225095922 62 171 3.0 7.0 0.00 0.00 0.00 49 1013.9
20240225095422 62 174 8.0 13.0 0.00 0.00 0.00 49 1013.9
20240225094921 62 180 1.0 2.0 0.00 0.00 0.00 50 1013.7
20240225094419 62 217 2.0 3.0 0.00 0.00 0.00 50 1013.9
20240225093917 62 266 4.0 5.0 0.00 0.00 0.00 50 1013.8
20240225093416 62 211 6.0 9.0 0.00 0.00 0.00 50 1013.8
20240225092915 62 175 3.0 6.0 0.00 0.00 0.00 51 1014.1
20240225092415 62 189 4.0 6.0 0.00 0.00 0.00 51 1013.8
20240225091915 62 200 2.0 2.0 0.00 0.00 0.00 51 1014.1
20240225091414 62 185 1.0 1.0 0.00 0.00 0.00 51 1014.0
20240225090914 62 197 3.0 5.0 0.00 0.00 0.00 51 1014.1
20240225090412 62 181 3.0 6.0 0.00 0.00 0.00 51 1014.3
20240225085910 62 199 9.0 14.0 0.00 0.00 0.00 50 1014.1
20240225085408 62 182 0.0 0.0 0.00 0.00 0.00 50 1014.3
20240225084908 62 201 3.0 5.0 0.00 0.00 0.00 50 1014.5
20240225084408 62 176 1.0 2.0 0.00 0.00 0.00 50 1014.7
20240225083907 62 186 3.0 5.0 0.00 0.00 0.00 49 1014.7
20240225083407 62 209 3.0 3.0 0.00 0.00 0.00 48 1014.7
20240225082906 62 171 7.0 16.0 0.00 0.00 0.00 48 1014.6
20240225082406 62 185 2.0 3.0 0.00 0.00 0.00 48 1014.6
20240225081906 62 174 5.0 8.0 0.00 0.00 0.00 48 1014.6
20240225081405 62 194 2.0 2.0 0.00 0.00 0.00 49 1014.6
20240225080904 62 207 1.0 2.0 0.00 0.00 0.00 49 1014.9
20240225080403 62 181 6.0 8.0 0.00 0.00 0.00 48 1014.7
20240225075902 62 177 6.0 9.0 0.00 0.00 0.00 49 1014.8
20240225075400 62 207 2.0 2.0 0.00 0.00 0.00 49 1014.6
20240225074859 62 221 2.0 3.0 0.00 0.00 0.00 49 1014.8
20240225074358 62 174 2.0 2.0 0.00 0.00 0.00 50 1014.8
20240225073858 61 175 2.0 2.0 0.00 0.00 0.00 50 1015.3
20240225073357 61 169 1.0 1.0 0.00 0.00 0.00 51 1015.2
20240225072858 61 182 1.0 1.0 0.00 0.00 0.00 50 1015.1
20240225072356 61 172 2.0 2.0 0.00 0.00 0.00 50 1014.9
20240225071856 61 187 2.0 3.0 0.00 0.00 0.00 51 1015.0
20240225071353 61 173 2.0 2.0 0.00 0.00 0.00 52 1015.3
20240225070851 61 175 1.0 2.0 0.00 0.00 0.00 51 1015.4
20240225070350 61 179 1.0 1.0 0.00 0.00 0.00 50 1015.2
20240225065849 62 176 0.0 1.0 0.00 0.00 0.00 50 1015.3
20240225065348 62 186 1.0 1.0 0.00 0.00 0.00 50 1015.1
20240225064846 62 179 1.0 1.0 0.00 0.00 0.00 50 1015.2
20240225064341 62 194 0.0 1.0 0.00 0.00 0.00 50 1015.1
20240225063840 62 152 0.0 1.0 0.00 0.00 0.00 49 1015.1
20240225063338 62 172 1.0 1.0 0.00 0.00 0.00 49 1015.2
20240225062838 63 175 1.0 1.0 0.00 0.00 0.00 49 1015.3
20240225062335 63 189 2.0 2.0 0.00 0.00 0.00 48 1015.1
20240225061835 63 193 2.0 2.0 0.00 0.00 0.00 48 1015.5
20240225061334 63 176 1.0 3.0 0.00 0.00 0.00 48 1015.4
20240225060833 63 168 1.0 1.0 0.00 0.00 0.00 48 1015.4
20240225060333 63 173 2.0 3.0 0.00 0.00 0.00 47 1015.7
20240225055831 63 180 1.0 2.0 0.00 0.00 0.00 47 1015.4
20240225055322 64 184 2.0 3.0 0.00 0.00 0.00 47 1015.6
20240225054820 64 185 4.0 6.0 0.00 0.00 0.00 45 1015.6
20240225054319 64 194 2.0 2.0 0.00 0.00 0.00 45 1015.7
20240225053819 64 185 3.0 3.0 0.00 0.00 0.00 46 1015.6
20240225053318 64 166 1.0 2.0 0.00 0.00 0.00 45 1015.6
20240225052816 64 184 2.0 2.0 0.00 0.00 0.00 44 1015.8
20240225052315 65 174 1.0 2.0 0.00 0.00 0.00 45 1015.7
20240225051815 65 190 3.0 5.0 0.00 0.00 0.00 43 1016.0
20240225051314 65 176 2.0 3.0 0.00 0.00 0.00 44 1015.8
20240225050811 65 194 1.0 2.0 0.00 0.00 0.00 44 1015.7
20240225050312 65 149 2.0 3.0 0.00 0.00 0.00 43 1015.8
20240225045811 65 166 2.0 2.0 0.00 0.00 0.00 43 1016.1
20240225045309 65 160 4.0 6.0 0.00 0.00 0.00 43 1015.9
20240225044808 65 178 3.0 3.0 0.00 0.00 0.00 44 1016.0
20240225044306 64 152 1.0 2.0 0.00 0.00 0.00 44 1015.9
20240225043805 64 174 1.0 2.0 0.00 0.00 0.00 44 1016.1
20240225043305 64 177 2.0 2.0 0.00 0.00 0.00 46 1016.1
20240225042803 64 168 1.0 1.0 0.00 0.00 0.00 46 1016.3
20240225042301 64 178 1.0 2.0 0.00 0.00 0.00 47 1016.1
20240225041801 64 176 1.0 1.0 0.00 0.00 0.00 45 1016.3
20240225041301 65 189 2.0 2.0 0.00 0.00 0.00 45 1016.4
20240225040800 64 173 1.0 1.0 0.00 0.00 0.00 46 1016.5
20240225040259 64 172 0.0 0.0 0.00 0.00 0.00 46 1016.2
20240225035757 64 180 1.0 1.0 0.00 0.00 0.00 46 1016.3
20240225035256 63 172 1.0 2.0 0.00 0.00 0.00 46 1016.5
20240225034756 64 164 0.0 1.0 0.00 0.00 0.00 47 1016.4
20240225034256 64 172 0.0 0.0 0.00 0.00 0.00 47 1016.3
20240225033755 64 159 1.0 1.0 0.00 0.00 0.00 47 1016.6
20240225033253 63 160 0.0 1.0 0.00 0.00 0.00 47 1016.3
20240225032752 64 173 0.0 0.0 0.00 0.00 0.00 46 1016.5
20240225032251 64 170 0.0 0.0 0.00 0.00 0.00 46 1016.6
20240225031750 64 171 0.0 0.0 0.00 0.00 0.00 45 1016.3
20240225031248 65 147 1.0 1.0 0.00 0.00 0.00 44 1016.5
20240225030747 65 160 0.0 0.0 0.00 0.00 0.00 44 1016.3
20240225030245 65 131 0.0 0.0 0.00 0.00 0.00 44 1016.3
20240225025744 65 146 0.0 1.0 0.00 0.00 0.00 43 1016.3
20240225025244 65 125 1.0 1.0 0.00 0.00 0.00 43 1016.1
20240225024743 64 175 0.0 0.0 0.00 0.00 0.00 44 1016.2
20240225024241 64 161 0.0 0.0 0.00 0.00 0.00 44 1016.2
20240225023741 64 157 0.0 0.0 0.00 0.00 0.00 44 1016.2
20240225023241 63 179 0.0 0.0 0.00 0.00 0.00 45 1016.1
20240225022740 63 118 0.0 1.0 0.00 0.00 0.00 45 1016.2
20240225022238 63 134 0.0 0.0 0.00 0.00 0.00 46 1016.2
20240225021738 63 136 0.0 1.0 0.00 0.00 0.00 45 1016.2
20240225021236 62 131 0.0 1.0 0.00 0.00 0.00 48 1016.0
20240225020736 62 131 0.0 0.0 0.00 0.00 0.00 45 1016.2
20240225020236 62 131 0.0 0.0 0.00 0.00 0.00 47 1016.2
20240225015736 62 131 0.0 0.0 0.00 0.00 0.00 47 1015.8
20240225015235 61 130 0.0 0.0 0.00 0.00 0.00 49 1016.0
20240225014734 61 131 0.0 0.0 0.00 0.00 0.00 50 1016.0
20240225014232 62 131 0.0 0.0 0.00 0.00 0.00 51 1016.1
20240225013732 63 131 0.0 0.0 0.00 0.00 0.00 46 1016.2
20240225013231 62 131 0.0 0.0 0.00 0.00 0.00 47 1016.1
20240225012730 63 131 0.0 0.0 0.00 0.00 0.00 46 1015.9
20240225012229 62 131 0.0 0.0 0.00 0.00 0.00 45 1015.9
20240225011727 62 131 0.0 0.0 0.00 0.00 0.00 43 1015.8
20240225011226 63 131 0.0 0.0 0.00 0.00 0.00 41 1015.9
20240225010726 63 131 0.0 0.0 0.00 0.00 0.00 41 1015.6
20240225010225 64 131 0.0 0.0 0.00 0.00 0.00 41 1015.7
20240225005724 64 131 0.0 0.0 0.00 0.00 0.00 40 1015.8
20240225005223 65 131 0.0 0.0 0.00 0.00 0.00 39 1015.7
20240225004721 66 131 0.0 0.0 0.00 0.00 0.00 36 1015.5
20240225004219 66 130 0.0 0.0 0.00 0.00 0.00 36 1015.6
20240225003718 67 131 0.0 0.0 0.00 0.00 0.00 36 1015.7
20240225003218 67 131 0.0 0.0 0.00 0.00 0.00 36 1015.6
20240225002717 68 131 0.0 0.0 0.00 0.00 0.00 34 1015.7
20240225002212 69 131 0.0 0.0 0.00 0.00 0.00 34 1015.8
20240225001711 70 169 0.0 0.0 0.00 0.00 0.00 34 1015.9
20240225001208 71 170 0.0 0.0 0.00 0.00 0.00 33 1015.7
20240225000703 72 148 0.0 0.0 0.00 0.00 0.00 33 1015.8
20240225000203 73 171 1.0 2.0 0.00 0.00 0.00 28 1015.9
20240224235700 73 178 1.0 1.0 0.00 0.00 0.00 30 1015.8
20240224235158 73 190 3.0 3.0 0.00 0.00 0.00 29 1016.0
20240224234658 73 165 3.0 3.0 0.00 0.00 0.00 28 1016.0
20240224234147 73 210 2.0 2.0 0.00 0.00 0.00 28 1016.0
20240224233645 74 172 0.0 0.0 0.00 0.00 0.00 28 1016.2
20240224233144 74 175 2.0 2.0 0.00 0.00 0.00 28 1016.3
20240224232643 74 177 3.0 6.0 0.00 0.00 0.00 26 1016.1
20240224232143 75 167 1.0 2.0 0.00 0.00 0.00 27 1016.1
20240224231642 75 182 1.0 1.0 0.00 0.00 0.00 26 1016.1
20240224231141 75 173 2.0 2.0 0.00 0.00 0.00 27 1016.3
20240224230640 75 165 1.0 1.0 0.00 0.00 0.00 28 1016.2
20240224230140 75 213 1.0 1.0 0.00 0.00 0.00 27 1016.6
20240224225640 75 271 2.0 3.0 0.00 0.00 0.00 27 1016.5
20240224225139 76 215 3.0 3.0 0.00 0.00 0.00 26 1016.5
20240224224637 77 180 2.0 2.0 0.00 0.00 0.00 26 1016.5
20240224224136 78 192 1.0 1.0 0.00 0.00 0.00 26 1016.6
20240224223636 78 167 3.0 6.0 0.00 0.00 0.00 26 1016.6
20240224223135 78 199 2.0 2.0 0.00 0.00 0.00 25 1016.7
20240224222633 78 266 1.0 1.0 0.00 0.00 0.00 25 1016.8
20240224222133 79 225 3.0 3.0 0.00 0.00 0.00 25 1016.7
20240224221632 79 236 2.0 3.0 0.00 0.00 0.00 25 1016.8
20240224221131 78 198 2.0 3.0 0.00 0.00 0.00 26 1016.7
20240224220631 79 136 3.0 5.0 0.00 0.00 0.00 26 1017.1
20240224220130 78 246 2.0 2.0 0.00 0.00 0.00 26 1016.9
20240224215629 78 229 2.0 2.0 0.00 0.00 0.00 27 1017.0
20240224215128 78 158 1.0 1.0 0.00 0.00 0.00 27 1017.0
20240224214627 77 220 3.0 3.0 0.00 0.00 0.00 26 1016.8
20240224214128 77 165 3.0 5.0 0.00 0.00 0.00 26 1017.2
20240224213626 77 172 0.0 0.0 0.00 0.00 0.00 29 1017.2
20240224213126 76 204 3.0 3.0 0.00 0.00 0.00 30 1017.3
20240224212625 77 257 3.0 3.0 0.00 0.00 0.00 28 1017.1
20240224212124 77 220 4.0 5.0 0.00 0.00 0.00 27 1017.2
20240224211623 77 233 2.0 3.0 0.00 0.00 0.00 27 1017.5
20240224211121 77 190 2.0 2.0 0.00 0.00 0.00 29 1017.6
20240224210620 77 267 3.0 3.0 0.00 0.00 0.00 28 1017.5
20240224210120 78 173 2.0 3.0 0.00 0.00 0.00 28 1017.4
20240224205618 77 226 0.0 1.0 0.00 0.00 0.00 27 1017.7
20240224205117 78 209 3.0 3.0 0.00 0.00 0.00 28 1017.9
20240224204615 78 208 4.0 5.0 0.00 0.00 0.00 28 1017.7
20240224204114 78 172 2.0 2.0 0.00 0.00 0.00 30 1018.0
20240224203614 77 214 1.0 2.0 0.00 0.00 0.00 31 1018.2
20240224203113 77 239 3.0 5.0 0.00 0.00 0.00 28 1018.2
20240224202613 77 246 2.0 2.0 0.00 0.00 0.00 28 1018.3
20240224202112 77 102 1.0 2.0 0.00 0.00 0.00 29 1018.5
20240224201611 77 155 3.0 3.0 0.00 0.00 0.00 30 1018.7
20240224201109 77 174 0.0 1.0 0.00 0.00 0.00 29 1018.9
20240224200609 76 243 2.0 2.0 0.00 0.00 0.00 29 1018.7
20240224200109 77 241 1.0 2.0 0.00 0.00 0.00 30 1018.7
20240224195607 76 226 1.0 1.0 0.00 0.00 0.00 29 1019.0
20240224195106 76 227 1.0 1.0 0.00 0.00 0.00 29 1018.9
20240224194604 75 245 4.0 6.0 0.00 0.00 0.00 29 1019.2
20240224194102 75 208 2.0 3.0 0.00 0.00 0.00 30 1019.4
20240224193601 76 234 3.0 6.0 0.00 0.00 0.00 29 1019.6
20240224193101 75 266 1.0 2.0 0.00 0.00 0.00 29 1019.5
20240224192600 75 235 2.0 2.0 0.00 0.00 0.00 28 1019.7